sensor_id;sensor_type;location;lat;lon;timestamp;pressure;altitude;pressure_sealevel;temperature;humidity
5996;BME280;3026;53.612;7.278;2023-04-27T00:01:00;101946.19;;;4.95;100.00
5996;BME280;3026;53.612;7.278;2023-04-27T00:03:27;101948.78;;;4.97;100.00
5996;BME280;3026;53.612;7.278;2023-04-27T00:05:53;101948.56;;;5.00;100.00
5996;BME280;3026;53.612;7.278;2023-04-27T00:08:21;101945.88;;;5.00;100.00
5996;BME280;3026;53.612;7.278;2023-04-27T00:10:48;101945.13;;;4.98;100.00
5996;BME280;3026;53.612;7.278;2023-04-27T00:13:15;101948.78;;;4.97;100.00
5996;BME280;3026;53.612;7.278;2023-04-27T00:15:42;101952.44;;;4.96;100.00
5996;BME280;3026;53.612;7.278;2023-04-27T00:18:09;101947.28;;;4.93;100.00
5996;BME280;3026;53.612;7.278;2023-04-27T00:20:36;101949.22;;;4.91;100.00
5996;BME280;3026;53.612;7.278;2023-04-27T00:23:04;101943.06;;;4.89;100.00
5996;BME280;3026;53.612;7.278;2023-04-27T00:25:32;101945.97;;;4.86;100.00
5996;BME280;3026;53.612;7.278;2023-04-27T00:27:59;101950.75;;;4.82;100.00
5996;BME280;3026;53.612;7.278;2023-04-27T00:30:26;101948.16;;;4.81;100.00
5996;BME280;3026;53.612;7.278;2023-04-27T00:32:53;101962.88;;;4.77;100.00
5996;BME280;3026;53.612;7.278;2023-04-27T00:35:19;101955.06;;;4.72;100.00
5996;BME280;3026;53.612;7.278;2023-04-27T00:37:46;101947.28;;;4.67;100.00
5996;BME280;3026;53.612;7.278;2023-04-27T00:40:13;101947.19;;;4.69;100.00
5996;BME280;3026;53.612;7.278;2023-04-27T00:42:41;101952.69;;;4.67;100.00
5996;BME280;3026;53.612;7.278;2023-04-27T00:45:09;101942.53;;;4.58;100.00
5996;BME280;3026;53.612;7.278;2023-04-27T00:47:38;101954.06;;;4.60;100.00
5996;BME280;3026;53.612;7.278;2023-04-27T00:50:05;101958.72;;;4.58;100.00
5996;BME280;3026;53.612;7.278;2023-04-27T00:52:35;101952.00;;;4.51;100.00
5996;BME280;3026;53.612;7.278;2023-04-27T00:55:02;101951.25;;;4.49;100.00
5996;BME280;3026;53.612;7.278;2023-04-27T00:57:29;101952.22;;;4.48;100.00
5996;BME280;3026;53.612;7.278;2023-04-27T00:59:59;101954.19;;;4.46;100.00
5996;BME280;3026;53.612;7.278;2023-04-27T01:02:25;101954.41;;;4.43;100.00
5996;BME280;3026;53.612;7.278;2023-04-27T01:04:52;101943.59;;;4.43;100.00
5996;BME280;3026;53.612;7.278;2023-04-27T01:07:24;101951.25;;;4.49;100.00
5996;BME280;3026;53.612;7.278;2023-04-27T01:09:51;101960.13;;;4.51;100.00
5996;BME280;3026;53.612;7.278;2023-04-27T01:12:18;101950.28;;;4.50;100.00
5996;BME280;3026;53.612;7.278;2023-04-27T01:14:45;101960.03;;;4.53;100.00
5996;BME280;3026;53.612;7.278;2023-04-27T01:17:13;101963.50;;;4.55;100.00
5996;BME280;3026;53.612;7.278;2023-04-27T01:19:40;101959.06;;;4.54;100.00
5996;BME280;3026;53.612;7.278;2023-04-27T01:22:07;101964.34;;;4.55;100.00
5996;BME280;3026;53.612;7.278;2023-04-27T01:24:35;101955.28;;;4.56;100.00
5996;BME280;3026;53.612;7.278;2023-04-27T01:27:02;101957.88;;;4.58;100.00
5996;BME280;3026;53.612;7.278;2023-04-27T01:29:29;101958.72;;;4.58;100.00
5996;BME280;3026;53.612;7.278;2023-04-27T01:31:56;101950.50;;;4.60;100.00
5996;BME280;3026;53.612;7.278;2023-04-27T01:34:22;101950.50;;;4.60;100.00
5996;BME280;3026;53.612;7.278;2023-04-27T01:36:49;101955.69;;;4.63;100.00
5996;BME280;3026;53.612;7.278;2023-04-27T01:39:16;101958.31;;;4.64;100.00
5996;BME280;3026;53.612;7.278;2023-04-27T01:41:44;101957.53;;;4.62;100.00
5996;BME280;3026;53.612;7.278;2023-04-27T01:44:11;101960.22;;;4.62;100.00
5996;BME280;3026;53.612;7.278;2023-04-27T01:46:37;101956.59;;;4.63;100.00
5996;BME280;3026;53.612;7.278;2023-04-27T01:49:05;101949.44;;;4.62;100.00
5996;BME280;3026;53.612;7.278;2023-04-27T01:51:32;101959.72;;;4.70;100.00
5996;BME280;3026;53.612;7.278;2023-04-27T01:53:58;101973.84;;;4.74;100.00
5996;BME280;3026;53.612;7.278;2023-04-27T01:56:25;101973.22;;;4.83;100.00
5996;BME280;3026;53.612;7.278;2023-04-27T01:58:54;101969.66;;;4.95;100.00
5996;BME280;3026;53.612;7.278;2023-04-27T02:01:20;101966.53;;;5.01;100.00
5996;BME280;3026;53.612;7.278;2023-04-27T02:03:47;101968.03;;;5.05;100.00
5996;BME280;3026;53.612;7.278;2023-04-27T02:06:14;101999.06;;;5.12;100.00
5996;BME280;3026;53.612;7.278;2023-04-27T02:08:41;101979.06;;;5.15;100.00
5996;BME280;3026;53.612;7.278;2023-04-27T02:11:08;101974.50;;;5.15;100.00
5996;BME280;3026;53.612;7.278;2023-04-27T02:13:35;101969.97;;;5.16;100.00
5996;BME280;3026;53.612;7.278;2023-04-27T02:16:03;101972.56;;;5.17;100.00
5996;BME280;3026;53.612;7.278;2023-04-27T02:18:30;101974.28;;;5.18;100.00
5996;BME280;3026;53.612;7.278;2023-04-27T02:20:58;101963.47;;;5.18;100.00
5996;BME280;3026;53.612;7.278;2023-04-27T02:23:25;101976.00;;;5.19;100.00
5996;BME280;3026;53.612;7.278;2023-04-27T02:25:51;101972.31;;;5.20;100.00
5996;BME280;3026;53.612;7.278;2023-04-27T02:28:18;101972.31;;;5.20;100.00
5996;BME280;3026;53.612;7.278;2023-04-27T02:30:45;101980.44;;;5.20;100.00
5996;BME280;3026;53.612;7.278;2023-04-27T02:33:13;101977.09;;;5.17;100.00
5996;BME280;3026;53.612;7.278;2023-04-27T02:35:40;101974.50;;;5.15;100.00
5996;BME280;3026;53.612;7.278;2023-04-27T02:38:07;101975.47;;;5.14;100.00
5996;BME280;3026;53.612;7.278;2023-04-27T02:40:34;101971.28;;;5.10;100.00
5996;BME280;3026;53.612;7.278;2023-04-27T02:43:01;101980.34;;;5.09;100.00
5996;BME280;3026;53.612;7.278;2023-04-27T02:45:28;101973.44;;;5.05;100.00
5996;BME280;3026;53.612;7.278;2023-04-27T02:47:55;101973.66;;;5.02;100.00
5996;BME280;3026;53.612;7.278;2023-04-27T02:50:23;101977.56;;;4.98;100.00
5996;BME280;3026;53.612;7.278;2023-04-27T02:52:50;101974.53;;;4.90;100.00
5996;BME280;3026;53.612;7.278;2023-04-27T02:55:16;101974.94;;;4.84;100.00
5996;BME280;3026;53.612;7.278;2023-04-27T02:57:45;101976.47;;;4.75;100.00
5996;BME280;3026;53.612;7.278;2023-04-27T03:00:13;101973.00;;;4.73;100.00
5996;BME280;3026;53.612;7.278;2023-04-27T03:02:40;101968.16;;;4.65;100.00
5996;BME280;3026;53.612;7.278;2023-04-27T03:05:07;101973.00;;;4.60;100.00
5996;BME280;3026;53.612;7.278;2023-04-27T03:07:35;101968.03;;;4.54;100.00
5996;BME280;3026;53.612;7.278;2023-04-27T03:10:03;101970.38;;;4.46;100.00
5996;BME280;3026;53.612;7.278;2023-04-27T03:12:29;101966.06;;;4.44;100.00
5996;BME280;3026;53.612;7.278;2023-04-27T03:14:56;101967.22;;;4.39;100.00
5996;BME280;3026;53.612;7.278;2023-04-27T03:17:24;101969.50;;;4.33;100.00
5996;BME280;3026;53.612;7.278;2023-04-27T03:19:50;101971.63;;;4.28;100.00
5996;BME280;3026;53.612;7.278;2023-04-27T03:22:17;101969.38;;;4.22;100.00
5996;BME280;3026;53.612;7.278;2023-04-27T03:24:45;101973.31;;;4.16;100.00
5996;BME280;3026;53.612;7.278;2023-04-27T03:27:12;101978.09;;;4.13;100.00
5996;BME280;3026;53.612;7.278;2023-04-27T03:29:39;101972.91;;;4.09;100.00
5996;BME280;3026;53.612;7.278;2023-04-27T03:32:06;101977.66;;;4.06;100.00
5996;BME280;3026;53.612;7.278;2023-04-27T03:34:32;101978.03;;;4.00;100.00
5996;BME280;3026;53.612;7.278;2023-04-27T03:37:00;101964.41;;;3.89;100.00
5996;BME280;3026;53.612;7.278;2023-04-27T03:39:27;101971.84;;;3.85;100.00
5996;BME280;3026;53.612;7.278;2023-04-27T03:41:55;101973.97;;;3.80;100.00
5996;BME280;3026;53.612;7.278;2023-04-27T03:44:23;101972.34;;;3.77;100.00
5996;BME280;3026;53.612;7.278;2023-04-27T03:46:50;101973.41;;;3.75;100.00
5996;BME280;3026;53.612;7.278;2023-04-27T03:49:17;101974.59;;;3.71;100.00
5996;BME280;3026;53.612;7.278;2023-04-27T03:51:44;101966.69;;;3.68;100.00
5996;BME280;3026;53.612;7.278;2023-04-27T03:54:10;101966.34;;;3.60;100.00
5996;BME280;3026;53.612;7.278;2023-04-27T03:56:37;101967.28;;;3.59;100.00
5996;BME280;3026;53.612;7.278;2023-04-27T03:59:05;101973.56;;;3.59;100.00
5996;BME280;3026;53.612;7.278;2023-04-27T04:01:32;101965.75;;;3.55;100.00
5996;BME280;3026;53.612;7.278;2023-04-27T04:03:59;101969.63;;;3.50;100.00
5996;BME280;3026;53.612;7.278;2023-04-27T04:06:28;101962.50;;;3.49;100.00
5996;BME280;3026;53.612;7.278;2023-04-27T04:08:55;101968.06;;;3.46;100.00
5996;BME280;3026;53.612;7.278;2023-04-27T04:11:22;101966.56;;;3.42;100.00
5996;BME280;3026;53.612;7.278;2023-04-27T04:13:49;101974.84;;;3.39;100.00
5996;BME280;3026;53.612;7.278;2023-04-27T04:16:17;101967.13;;;3.33;100.00
5996;BME280;3026;53.612;7.278;2023-04-27T04:18:44;101963.69;;;3.31;100.00
5996;BME280;3026;53.612;7.278;2023-04-27T04:21:11;101964.84;;;3.27;100.00
5996;BME280;3026;53.612;7.278;2023-04-27T04:23:38;101964.25;;;3.22;100.00
5996;BME280;3026;53.612;7.278;2023-04-27T04:26:05;101956.28;;;3.20;100.00
5996;BME280;3026;53.612;7.278;2023-04-27T04:28:33;101962.63;;;3.19;100.00
5996;BME280;3026;53.612;7.278;2023-04-27T04:31:00;101951.09;;;3.17;100.00
5996;BME280;3026;53.612;7.278;2023-04-27T04:33:28;101952.16;;;3.15;100.00
5996;BME280;3026;53.612;7.278;2023-04-27T04:35:55;101952.16;;;3.15;100.00
5996;BME280;3026;53.612;7.278;2023-04-27T04:38:23;101961.38;;;3.11;100.00
5996;BME280;3026;53.612;7.278;2023-04-27T04:40:49;101958.59;;;3.12;100.00
5996;BME280;3026;53.612;7.278;2023-04-27T04:43:17;101964.66;;;3.16;100.00
5996;BME280;3026;53.612;7.278;2023-04-27T04:45:44;101958.31;;;3.17;100.00
5996;BME280;3026;53.612;7.278;2023-04-27T04:48:13;101968.88;;;3.20;100.00
5996;BME280;3026;53.612;7.278;2023-04-27T04:50:42;101969.66;;;3.22;100.00
5996;BME280;3026;53.612;7.278;2023-04-27T04:53:08;101970.34;;;3.26;100.00
5996;BME280;3026;53.612;7.278;2023-04-27T04:55:35;101978.13;;;3.30;100.00
5996;BME280;3026;53.612;7.278;2023-04-27T04:58:02;101968.41;;;3.28;100.00
5996;BME280;3026;53.612;7.278;2023-04-27T05:00:29;101983.13;;;3.36;100.00
5996;BME280;3026;53.612;7.278;2023-04-27T05:02:55;101982.94;;;3.39;100.00
5996;BME280;3026;53.612;7.278;2023-04-27T05:05:22;101976.69;;;3.39;100.00
5996;BME280;3026;53.612;7.278;2023-04-27T05:07:51;101978.31;;;3.41;100.00
5996;BME280;3026;53.612;7.278;2023-04-27T05:10:17;101972.81;;;3.43;100.00
5996;BME280;3026;53.612;7.278;2023-04-27T05:12:44;101975.41;;;3.44;100.00
5996;BME280;3026;53.612;7.278;2023-04-27T05:15:11;101979.66;;;3.48;100.00
5996;BME280;3026;53.612;7.278;2023-04-27T05:17:38;101975.97;;;3.49;100.00
5996;BME280;3026;53.612;7.278;2023-04-27T05:20:06;101978.47;;;3.53;100.00
5996;BME280;3026;53.612;7.278;2023-04-27T05:22:33;101992.72;;;3.55;100.00
5996;BME280;3026;53.612;7.278;2023-04-27T05:25:02;101996.00;;;3.60;100.00
5996;BME280;3026;53.612;7.278;2023-04-27T05:27:29;101990.41;;;3.63;100.00
5996;BME280;3026;53.612;7.278;2023-04-27T05:29:56;101993.66;;;3.68;100.00
5996;BME280;3026;53.612;7.278;2023-04-27T05:32:23;101990.66;;;3.72;100.00
5996;BME280;3026;53.612;7.278;2023-04-27T05:34:50;101998.44;;;3.77;100.00
5996;BME280;3026;53.612;7.278;2023-04-27T05:37:17;101997.19;;;3.83;100.00
5996;BME280;3026;53.612;7.278;2023-04-27T05:39:44;101992.34;;;3.88;100.00
5996;BME280;3026;53.612;7.278;2023-04-27T05:42:12;101995.53;;;3.94;100.00
5996;BME280;3026;53.612;7.278;2023-04-27T05:44:39;102008.47;;;4.02;100.00
5996;BME280;3026;53.612;7.278;2023-04-27T05:47:06;102007.00;;;4.10;100.00
5996;BME280;3026;53.612;7.278;2023-04-27T05:49:32;102007.28;;;4.20;100.00
5996;BME280;3026;53.612;7.278;2023-04-27T05:51:59;102008.50;;;4.29;100.00
5996;BME280;3026;53.612;7.278;2023-04-27T05:54:27;102013.13;;;4.39;100.00
5996;BME280;3026;53.612;7.278;2023-04-27T05:56:53;102008.66;;;4.53;100.00
5996;BME280;3026;53.612;7.278;2023-04-27T05:59:21;102017.53;;;4.67;100.00
5996;BME280;3026;53.612;7.278;2023-04-27T06:01:48;102023.59;;;4.84;100.00
5996;BME280;3026;53.612;7.278;2023-04-27T06:04:15;102020.38;;;5.04;100.00
5996;BME280;3026;53.612;7.278;2023-04-27T06:06:42;102025.97;;;5.26;100.00
5996;BME280;3026;53.612;7.278;2023-04-27T06:09:09;102035.28;;;5.48;100.00
5996;BME280;3026;53.612;7.278;2023-04-27T06:11:36;102036.94;;;5.74;100.00
5996;BME280;3026;53.612;7.278;2023-04-27T06:14:02;102018.06;;;5.85;100.00
5996;BME280;3026;53.612;7.278;2023-04-27T06:16:30;102024.75;;;6.05;100.00
5996;BME280;3026;53.612;7.278;2023-04-27T06:18:57;102031.09;;;6.17;100.00
5996;BME280;3026;53.612;7.278;2023-04-27T06:21:24;102027.69;;;6.26;100.00
5996;BME280;3026;53.612;7.278;2023-04-27T06:23:51;102033.38;;;6.34;100.00
5996;BME280;3026;53.612;7.278;2023-04-27T06:26:17;102026.53;;;6.41;100.00
5996;BME280;3026;53.612;7.278;2023-04-27T06:28:44;102032.31;;;6.48;100.00
5996;BME280;3026;53.612;7.278;2023-04-27T06:31:11;102027.19;;;6.56;100.00
5996;BME280;3026;53.612;7.278;2023-04-27T06:33:39;102024.88;;;6.63;100.00
5996;BME280;3026;53.612;7.278;2023-04-27T06:36:07;102027.84;;;6.71;100.00
5996;BME280;3026;53.612;7.278;2023-04-27T06:38:33;102016.28;;;6.80;100.00
5996;BME280;3026;53.612;7.278;2023-04-27T06:41:00;102019.28;;;6.88;100.00
5996;BME280;3026;53.612;7.278;2023-04-27T06:43:27;102023.97;;;6.97;100.00
5996;BME280;3026;53.612;7.278;2023-04-27T06:45:54;102020.56;;;7.07;100.00
5996;BME280;3026;53.612;7.278;2023-04-27T06:48:21;102013.38;;;7.17;100.00
5996;BME280;3026;53.612;7.278;2023-04-27T06:50:49;102012.66;;;7.26;100.00
5996;BME280;3026;53.612;7.278;2023-04-27T06:53:16;102020.31;;;7.32;100.00
5996;BME280;3026;53.612;7.278;2023-04-27T06:55:43;102013.66;;;7.36;100.00
5996;BME280;3026;53.612;7.278;2023-04-27T06:58:10;102012.31;;;7.42;100.00
5996;BME280;3026;53.612;7.278;2023-04-27T07:00:37;102007.75;;;7.42;100.00
5996;BME280;3026;53.612;7.278;2023-04-27T07:03:03;102011.66;;;7.49;100.00
5996;BME280;3026;53.612;7.278;2023-04-27T07:05:30;102011.91;;;7.57;100.00
5996;BME280;3026;53.612;7.278;2023-04-27T07:08:00;102015.97;;;7.63;100.00
5996;BME280;3026;53.612;7.278;2023-04-27T07:10:27;102020.06;;;7.69;100.00
5996;BME280;3026;53.612;7.278;2023-04-27T07:12:54;102008.94;;;7.72;100.00
5996;BME280;3026;53.612;7.278;2023-04-27T07:15:21;102012.16;;;7.77;100.00
5996;BME280;3026;53.612;7.278;2023-04-27T07:17:50;101996.56;;;7.90;100.00
5996;BME280;3026;53.612;7.278;2023-04-27T07:20:16;102002.44;;;8.06;100.00
5996;BME280;3026;53.612;7.278;2023-04-27T07:22:43;102000.41;;;8.19;100.00
5996;BME280;3026;53.612;7.278;2023-04-27T07:25:11;101995.81;;;8.31;100.00
5996;BME280;3026;53.612;7.278;2023-04-27T07:27:38;102001.34;;;8.41;100.00
5996;BME280;3026;53.612;7.278;2023-04-27T07:30:06;101998.84;;;8.49;100.00
5996;BME280;3026;53.612;7.278;2023-04-27T07:32:34;101999.81;;;8.59;100.00
5996;BME280;3026;53.612;7.278;2023-04-27T07:35:01;101994.44;;;8.69;100.00
5996;BME280;3026;53.612;7.278;2023-04-27T07:37:28;102004.56;;;8.88;100.00
5996;BME280;3026;53.612;7.278;2023-04-27T07:39:55;102003.97;;;9.05;100.00
5996;BME280;3026;53.612;7.278;2023-04-27T07:42:25;102012.22;;;9.24;100.00
5996;BME280;3026;53.612;7.278;2023-04-27T07:44:52;102014.31;;;9.42;100.00
5996;BME280;3026;53.612;7.278;2023-04-27T07:47:18;102009.59;;;9.44;100.00
5996;BME280;3026;53.612;7.278;2023-04-27T07:49:46;102016.94;;;9.53;100.00
5996;BME280;3026;53.612;7.278;2023-04-27T07:52:13;102015.56;;;9.68;100.00
5996;BME280;3026;53.612;7.278;2023-04-27T07:54:40;102007.28;;;9.79;100.00
5996;BME280;3026;53.612;7.278;2023-04-27T07:57:07;102013.94;;;9.96;100.00
5996;BME280;3026;53.612;7.278;2023-04-27T07:59:37;102015.81;;;9.96;100.00
5996;BME280;3026;53.612;7.278;2023-04-27T08:02:04;102013.94;;;10.06;100.00
5996;BME280;3026;53.612;7.278;2023-04-27T08:04:31;102014.53;;;10.09;100.00
5996;BME280;3026;53.612;7.278;2023-04-27T08:06:58;102015.94;;;10.04;100.00
5996;BME280;3026;53.612;7.278;2023-04-27T08:09:25;102013.66;;;10.09;100.00
5996;BME280;3026;53.612;7.278;2023-04-27T08:11:52;102011.94;;;10.08;100.00
5996;BME280;3026;53.612;7.278;2023-04-27T08:14:19;102014.53;;;10.09;100.00
5996;BME280;3026;53.612;7.278;2023-04-27T08:16:47;102014.22;;;10.03;100.00
5996;BME280;3026;53.612;7.278;2023-04-27T08:19:16;102009.66;;;10.13;100.00
5996;BME280;3026;53.612;7.278;2023-04-27T08:21:43;102015.44;;;10.29;100.00
5996;BME280;3026;53.612;7.278;2023-04-27T08:24:10;102011.72;;;10.40;100.00
5996;BME280;3026;53.612;7.278;2023-04-27T08:26:36;102017.44;;;10.37;100.00
5996;BME280;3026;53.612;7.278;2023-04-27T08:29:04;102029.22;;;10.37;100.00
5996;BME280;3026;53.612;7.278;2023-04-27T08:31:31;102027.50;;;10.36;100.00
5996;BME280;3026;53.612;7.278;2023-04-27T08:33:59;102024.22;;;10.33;100.00
5996;BME280;3026;53.612;7.278;2023-04-27T08:36:26;102018.03;;;10.40;100.00
5996;BME280;3026;53.612;7.278;2023-04-27T08:38:53;102003.38;;;10.51;100.00
5996;BME280;3026;53.612;7.278;2023-04-27T08:41:20;102008.53;;;10.83;100.00
5996;BME280;3026;53.612;7.278;2023-04-27T08:43:48;102020.84;;;11.06;100.00
5996;BME280;3026;53.612;7.278;2023-04-27T08:46:17;102014.19;;;11.19;100.00
5996;BME280;3026;53.612;7.278;2023-04-27T08:48:45;102023.13;;;11.11;100.00
5996;BME280;3026;53.612;7.278;2023-04-27T08:51:14;102024.56;;;11.05;100.00
5996;BME280;3026;53.612;7.278;2023-04-27T08:53:47;102028.31;;;11.04;100.00
5996;BME280;3026;53.612;7.278;2023-04-27T08:56:14;102033.22;;;11.01;100.00
5996;BME280;3026;53.612;7.278;2023-04-27T08:58:41;102034.09;;;10.92;100.00
5996;BME280;3026;53.612;7.278;2023-04-27T09:01:08;102033.81;;;10.75;100.00
5996;BME280;3026;53.612;7.278;2023-04-27T09:03:35;102034.41;;;10.60;100.00
5996;BME280;3026;53.612;7.278;2023-04-27T09:06:03;102027.50;;;10.46;100.00
5996;BME280;3026;53.612;7.278;2023-04-27T09:08:42;102037.53;;;10.36;100.00
5996;BME280;3026;53.612;7.278;2023-04-27T09:11:09;102044.41;;;10.30;100.00
5996;BME280;3026;53.612;7.278;2023-04-27T09:13:37;102037.81;;;10.23;100.00
5996;BME280;3026;53.612;7.278;2023-04-27T09:16:04;102039.78;;;10.11;100.00
5996;BME280;3026;53.612;7.278;2023-04-27T09:18:34;102042.34;;;10.03;100.00
5996;BME280;3026;53.612;7.278;2023-04-27T09:21:02;102051.47;;;9.92;100.00
5996;BME280;3026;53.612;7.278;2023-04-27T09:23:30;102045.13;;;9.82;100.00
5996;BME280;3026;53.612;7.278;2023-04-27T09:26:00;102044.22;;;9.72;100.00
5996;BME280;3026;53.612;7.278;2023-04-27T09:28:29;102058.00;;;9.71;100.00
5996;BME280;3026;53.612;7.278;2023-04-27T09:30:57;102055.13;;;9.62;100.00
5996;BME280;3026;53.612;7.278;2023-04-27T09:33:26;102062.53;;;9.60;100.00
5996;BME280;3026;53.612;7.278;2023-04-27T09:35:54;102059.94;;;9.59;100.00
5996;BME280;3026;53.612;7.278;2023-04-27T09:38:22;102060.22;;;9.56;100.00
5996;BME280;3026;53.612;7.278;2023-04-27T09:40:52;102055.59;;;9.47;100.00
5996;BME280;3026;53.612;7.278;2023-04-27T09:43:21;102052.44;;;9.42;100.00
5996;BME280;3026;53.612;7.278;2023-04-27T09:45:49;102055.53;;;9.37;100.00
5996;BME280;3026;53.612;7.278;2023-04-27T09:48:16;102057.31;;;9.38;100.00
5996;BME280;3026;53.612;7.278;2023-04-27T09:50:44;102056.16;;;9.41;100.00
5996;BME280;3026;53.612;7.278;2023-04-27T09:53:14;102063.31;;;9.42;100.00
5996;BME280;3026;53.612;7.278;2023-04-27T09:55:44;102054.44;;;9.40;100.00
5996;BME280;3026;53.612;7.278;2023-04-27T09:58:49;102054.44;;;9.40;100.00
5996;BME280;3026;53.612;7.278;2023-04-27T10:01:26;102059.13;;;9.38;100.00
5996;BME280;3026;53.612;7.278;2023-04-27T10:04:05;102063.59;;;9.39;100.00
5996;BME280;3026;53.612;7.278;2023-04-27T10:06:58;102062.84;;;9.36;100.00
5996;BME280;3026;53.612;7.278;2023-04-27T10:09:26;102056.31;;;9.39;100.00
5996;BME280;3026;53.612;7.278;2023-04-27T10:11:54;102062.75;;;9.38;100.00
5996;BME280;3026;53.612;7.278;2023-04-27T10:14:23;102067.03;;;9.41;100.00
5996;BME280;3026;53.612;7.278;2023-04-27T10:16:53;102057.88;;;9.42;100.00
5996;BME280;3026;53.612;7.278;2023-04-27T10:19:21;102061.91;;;9.47;100.00
5996;BME280;3026;53.612;7.278;2023-04-27T10:21:56;102057.94;;;9.51;100.00
5996;BME280;3026;53.612;7.278;2023-04-27T10:24:33;102055.78;;;9.55;100.00
5996;BME280;3026;53.612;7.278;2023-04-27T10:27:02;102055.25;;;9.61;100.00
5996;BME280;3026;53.612;7.278;2023-04-27T10:29:39;102053.97;;;9.65;100.00
5996;BME280;3026;53.612;7.278;2023-04-27T10:32:10;102061.16;;;9.66;100.00
5996;BME280;3026;53.612;7.278;2023-04-27T10:34:38;102054.28;;;9.72;100.00
5996;BME280;3026;53.612;7.278;2023-04-27T10:37:07;102056.88;;;9.73;100.00
5996;BME280;3026;53.612;7.278;2023-04-27T10:39:35;102052.53;;;9.71;100.00
5996;BME280;3026;53.612;7.278;2023-04-27T10:42:03;102051.16;;;9.76;100.00
5996;BME280;3026;53.612;7.278;2023-04-27T10:44:31;102056.03;;;9.82;100.00
5996;BME280;3026;53.612;7.278;2023-04-27T10:47:00;102054.91;;;9.94;100.00
5996;BME280;3026;53.612;7.278;2023-04-27T10:49:28;102051.38;;;10.04;100.00
5996;BME280;3026;53.612;7.278;2023-04-27T10:51:57;102052.41;;;10.12;100.00
5996;BME280;3026;53.612;7.278;2023-04-27T10:54:26;102050.69;;;10.21;100.00
5996;BME280;3026;53.612;7.278;2023-04-27T10:56:53;102047.00;;;10.22;100.00
5996;BME280;3026;53.612;7.278;2023-04-27T10:59:20;102050.44;;;10.24;100.00
5996;BME280;3026;53.612;7.278;2023-04-27T11:01:48;102041.56;;;10.22;100.00
5996;BME280;3026;53.612;7.278;2023-04-27T11:04:17;102044.69;;;10.27;100.00
5996;BME280;3026;53.612;7.278;2023-04-27T11:06:44;102045.56;;;10.37;100.00
5996;BME280;3026;53.612;7.278;2023-04-27T11:09:12;102043.00;;;10.45;100.00
5996;BME280;3026;53.612;7.278;2023-04-27T11:11:42;102037.13;;;10.50;100.00
5996;BME280;3026;53.612;7.278;2023-04-27T11:14:13;102047.31;;;10.48;100.00
5996;BME280;3026;53.612;7.278;2023-04-27T11:16:45;102030.94;;;10.38;100.00
5996;BME280;3026;53.612;7.278;2023-04-27T11:19:12;102040.97;;;10.38;100.00
5996;BME280;3026;53.612;7.278;2023-04-27T11:21:40;102041.13;;;10.36;100.00
5996;BME280;3026;53.612;7.278;2023-04-27T11:24:07;102040.41;;;10.34;100.00
5996;BME280;3026;53.612;7.278;2023-04-27T11:26:35;102049.59;;;10.33;100.00
5996;BME280;3026;53.612;7.278;2023-04-27T11:29:03;102040.41;;;10.34;100.00
5996;BME280;3026;53.612;7.278;2023-04-27T11:31:41;102045.56;;;10.37;100.00
5996;BME280;3026;53.612;7.278;2023-04-27T11:34:14;102045.28;;;10.40;100.00
5996;BME280;3026;53.612;7.278;2023-04-27T11:36:43;102038.28;;;10.47;100.00
5996;BME280;3026;53.612;7.278;2023-04-27T11:39:15;102052.78;;;10.58;100.00
5996;BME280;3026;53.612;7.278;2023-04-27T11:41:43;102050.19;;;10.66;100.00
5996;BME280;3026;53.612;7.278;2023-04-27T11:44:11;102045.44;;;10.87;100.00
5996;BME280;3026;53.612;7.278;2023-04-27T11:46:38;102045.56;;;10.95;100.00
5996;BME280;3026;53.612;7.278;2023-04-27T11:49:07;102046.13;;;11.08;100.00
5996;BME280;3026;53.612;7.278;2023-04-27T11:51:34;102053.25;;;11.29;100.00
5996;BME280;3026;53.612;7.278;2023-04-27T11:54:04;102052.91;;;11.51;100.00
5996;BME280;3026;53.612;7.278;2023-04-27T11:56:35;102038.75;;;11.65;100.00
5996;BME280;3026;53.612;7.278;2023-04-27T11:59:03;102043.84;;;11.88;100.00
5996;BME280;3026;53.612;7.278;2023-04-27T12:01:30;102049.06;;;12.26;100.00
5996;BME280;3026;53.612;7.278;2023-04-27T12:03:58;102040.56;;;12.47;100.00
5996;BME280;3026;53.612;7.278;2023-04-27T12:06:25;102045.38;;;12.63;100.00
5996;BME280;3026;53.612;7.278;2023-04-27T12:08:53;102047.31;;;12.71;100.00
5996;BME280;3026;53.612;7.278;2023-04-27T12:11:23;102047.13;;;12.72;100.00
5996;BME280;3026;53.612;7.278;2023-04-27T12:13:50;102040.66;;;12.73;100.00
5996;BME280;3026;53.612;7.278;2023-04-27T12:16:17;102040.09;;;12.70;100.00
5996;BME280;3026;53.612;7.278;2023-04-27T12:18:46;102045.50;;;12.79;100.00
5996;BME280;3026;53.612;7.278;2023-04-27T12:21:13;102037.66;;;12.84;100.00
5996;BME280;3026;53.612;7.278;2023-04-27T12:23:40;102037.03;;;12.91;100.00
5996;BME280;3026;53.612;7.278;2023-04-27T12:26:06;102035.00;;;12.93;100.00
5996;BME280;3026;53.612;7.278;2023-04-27T12:28:35;102036.09;;;13.00;100.00
5996;BME280;3026;53.612;7.278;2023-04-27T12:31:03;102037.72;;;13.10;100.00
5996;BME280;3026;53.612;7.278;2023-04-27T12:33:30;102031.84;;;13.23;100.00
5996;BME280;3026;53.612;7.278;2023-04-27T12:35:57;102046.72;;;13.21;100.00
5996;BME280;3026;53.612;7.278;2023-04-27T12:38:24;102038.06;;;13.33;100.00
5996;BME280;3026;53.612;7.278;2023-04-27T12:40:50;102039.53;;;13.46;100.00
5996;BME280;3026;53.612;7.278;2023-04-27T12:43:17;102038.91;;;13.60;100.00
5996;BME280;3026;53.612;7.278;2023-04-27T12:45:45;102038.50;;;13.47;100.00
5996;BME280;3026;53.612;7.278;2023-04-27T12:48:12;102035.38;;;13.41;100.00
5996;BME280;3026;53.612;7.278;2023-04-27T12:50:40;102036.84;;;13.62;100.00
5996;BME280;3026;53.612;7.278;2023-04-27T12:53:07;102032.31;;;13.79;100.00
5996;BME280;3026;53.612;7.278;2023-04-27T12:55:33;102039.19;;;13.83;99.92
5996;BME280;3026;53.612;7.278;2023-04-27T12:58:01;102047.19;;;13.68;98.39
5996;BME280;3026;53.612;7.278;2023-04-27T13:00:29;102031.72;;;13.59;99.27
5996;BME280;3026;53.612;7.278;2023-04-27T13:02:57;102042.00;;;13.65;99.13
5996;BME280;3026;53.612;7.278;2023-04-27T13:05:24;102045.88;;;13.54;98.62
5996;BME280;3026;53.612;7.278;2023-04-27T13:07:51;102044.38;;;13.60;98.53
5996;BME280;3026;53.612;7.278;2023-04-27T13:10:18;102045.59;;;13.65;98.75